sensor_id;sensor_type;location;lat;lon;timestamp;P1;durP1;ratioP1;P2;durP2;ratioP2
60292;SDS011;52402;52.670;6.750;2023-02-15T00:01:51;26.48;;;14.95;;
60292;SDS011;52402;52.670;6.750;2023-02-15T00:04:19;46.35;;;41.42;;
60292;SDS011;52402;52.670;6.750;2023-02-15T00:06:46;47.78;;;42.88;;
60292;SDS011;52402;52.670;6.750;2023-02-15T00:09:12;49.92;;;44.97;;
60292;SDS011;52402;52.670;6.750;2023-02-15T00:11:38;49.90;;;44.88;;
60292;SDS011;52402;52.670;6.750;2023-02-15T00:14:20;41.63;;;37.63;;
60292;SDS011;52402;52.670;6.750;2023-02-15T00:16:48;38.97;;;35.33;;
60292;SDS011;52402;52.670;6.750;2023-02-15T00:19:16;38.88;;;34.88;;
60292;SDS011;52402;52.670;6.750;2023-02-15T00:21:42;41.38;;;37.50;;
60292;SDS011;52402;52.670;6.750;2023-02-15T00:24:10;40.60;;;36.65;;
60292;SDS011;52402;52.670;6.750;2023-02-15T00:26:38;40.78;;;36.85;;
60292;SDS011;52402;52.670;6.750;2023-02-15T00:29:05;42.28;;;38.28;;
60292;SDS011;52402;52.670;6.750;2023-02-15T00:31:31;40.80;;;36.90;;
60292;SDS011;52402;52.670;6.750;2023-02-15T00:34:01;83.28;;;46.65;;
60292;SDS011;52402;52.670;6.750;2023-02-15T00:36:31;54.35;;;48.90;;
60292;SDS011;52402;52.670;6.750;2023-02-15T00:38:57;47.08;;;42.28;;
60292;SDS011;52402;52.670;6.750;2023-02-15T00:41:22;51.00;;;45.72;;
60292;SDS011;52402;52.670;6.750;2023-02-15T00:43:48;42.38;;;38.38;;
60292;SDS011;52402;52.670;6.750;2023-02-15T00:46:14;59.72;;;53.55;;
60292;SDS011;52402;52.670;6.750;2023-02-15T00:48:40;58.60;;;52.63;;
60292;SDS011;52402;52.670;6.750;2023-02-15T00:51:05;48.72;;;44.03;;
60292;SDS011;52402;52.670;6.750;2023-02-15T00:53:31;48.53;;;43.83;;
60292;SDS011;52402;52.670;6.750;2023-02-15T00:55:57;42.38;;;38.22;;
60292;SDS011;52402;52.670;6.750;2023-02-15T00:58:23;42.75;;;38.33;;
60292;SDS011;52402;52.670;6.750;2023-02-15T01:00:50;50.08;;;44.90;;
60292;SDS011;52402;52.670;6.750;2023-02-15T01:03:16;45.90;;;41.42;;
60292;SDS011;52402;52.670;6.750;2023-02-15T01:05:43;43.78;;;39.38;;
60292;SDS011;52402;52.670;6.750;2023-02-15T01:08:09;51.60;;;46.15;;
60292;SDS011;52402;52.670;6.750;2023-02-15T01:10:35;48.45;;;43.72;;
60292;SDS011;52402;52.670;6.750;2023-02-15T01:13:00;48.13;;;43.35;;
60292;SDS011;52402;52.670;6.750;2023-02-15T01:15:27;45.67;;;41.15;;
60292;SDS011;52402;52.670;6.750;2023-02-15T01:17:53;45.30;;;40.90;;
60292;SDS011;52402;52.670;6.750;2023-02-15T01:20:20;50.13;;;45.30;;
60292;SDS011;52402;52.670;6.750;2023-02-15T01:22:47;46.67;;;41.95;;
60292;SDS011;52402;52.670;6.750;2023-02-15T01:25:15;52.53;;;47.22;;
60292;SDS011;52402;52.670;6.750;2023-02-15T01:27:41;55.00;;;49.38;;
60292;SDS011;52402;52.670;6.750;2023-02-15T01:30:08;50.67;;;45.83;;
60292;SDS011;52402;52.670;6.750;2023-02-15T01:32:34;59.35;;;53.08;;
60292;SDS011;52402;52.670;6.750;2023-02-15T01:35:00;40.58;;;36.60;;
60292;SDS011;52402;52.670;6.750;2023-02-15T01:37:25;42.83;;;38.90;;
60292;SDS011;52402;52.670;6.750;2023-02-15T01:39:51;45.13;;;40.72;;
60292;SDS011;52402;52.670;6.750;2023-02-15T01:42:26;44.72;;;40.63;;
60292;SDS011;52402;52.670;6.750;2023-02-15T01:44:54;42.00;;;38.05;;
60292;SDS011;52402;52.670;6.750;2023-02-15T01:50:05;47.53;;;43.10;;
60292;SDS011;52402;52.670;6.750;2023-02-15T01:52:40;50.20;;;45.42;;
60292;SDS011;52402;52.670;6.750;2023-02-15T01:55:13;43.75;;;39.58;;
60292;SDS011;52402;52.670;6.750;2023-02-15T01:57:40;44.70;;;40.40;;
60292;SDS011;52402;52.670;6.750;2023-02-15T02:00:07;39.13;;;35.53;;
60292;SDS011;52402;52.670;6.750;2023-02-15T02:02:33;48.40;;;43.95;;
60292;SDS011;52402;52.670;6.750;2023-02-15T02:05:00;37.47;;;34.17;;
60292;SDS011;52402;52.670;6.750;2023-02-15T02:07:37;37.10;;;33.90;;
60292;SDS011;52402;52.670;6.750;2023-02-15T02:10:06;42.38;;;38.30;;
60292;SDS011;52402;52.670;6.750;2023-02-15T02:12:33;54.55;;;46.25;;
60292;SDS011;52402;52.670;6.750;2023-02-15T02:15:00;48.28;;;43.53;;
60292;SDS011;52402;52.670;6.750;2023-02-15T02:23:23;52.58;;;47.08;;
60292;SDS011;52402;52.670;6.750;2023-02-15T02:28:51;59.00;;;50.42;;
60292;SDS011;52402;52.670;6.750;2023-02-15T02:34:30;43.58;;;39.35;;
60292;SDS011;52402;52.670;6.750;2023-02-15T02:37:40;48.35;;;43.75;;
60292;SDS011;52402;52.670;6.750;2023-02-15T02:43:25;52.22;;;44.30;;
60292;SDS011;52402;52.670;6.750;2023-02-15T02:46:02;48.00;;;43.28;;
60292;SDS011;52402;52.670;6.750;2023-02-15T02:48:38;38.65;;;30.33;;
60292;SDS011;52402;52.670;6.750;2023-02-15T02:51:04;45.35;;;40.78;;
60292;SDS011;52402;52.670;6.750;2023-02-15T02:53:30;44.67;;;40.28;;
60292;SDS011;52402;52.670;6.750;2023-02-15T02:56:09;57.35;;;49.03;;
60292;SDS011;52402;52.670;6.750;2023-02-15T02:58:45;51.75;;;45.15;;
60292;SDS011;52402;52.670;6.750;2023-02-15T03:01:24;81.15;;;54.40;;
60292;SDS011;52402;52.670;6.750;2023-02-15T03:03:58;44.53;;;39.90;;
60292;SDS011;52402;52.670;6.750;2023-02-15T03:06:58;60.88;;;46.78;;
60292;SDS011;52402;52.670;6.750;2023-02-15T03:09:34;60.13;;;52.00;;
60292;SDS011;52402;52.670;6.750;2023-02-15T03:12:11;47.72;;;43.08;;
60292;SDS011;52402;52.670;6.750;2023-02-15T03:14:47;44.88;;;40.35;;
60292;SDS011;52402;52.670;6.750;2023-02-15T03:17:16;81.28;;;63.45;;
60292;SDS011;52402;52.670;6.750;2023-02-15T03:19:46;59.10;;;53.00;;
60292;SDS011;52402;52.670;6.750;2023-02-15T03:22:18;55.72;;;49.67;;
60292;SDS011;52402;52.670;6.750;2023-02-15T03:25:04;44.50;;;40.15;;
60292;SDS011;52402;52.670;6.750;2023-02-15T03:27:40;39.60;;;35.42;;
60292;SDS011;52402;52.670;6.750;2023-02-15T03:32:35;44.42;;;40.05;;
60292;SDS011;52402;52.670;6.750;2023-02-15T03:35:03;51.63;;;46.45;;
60292;SDS011;52402;52.670;6.750;2023-02-15T03:40:18;54.67;;;49.10;;
60292;SDS011;52402;52.670;6.750;2023-02-15T03:45:38;44.42;;;40.10;;
60292;SDS011;52402;52.670;6.750;2023-02-15T03:48:20;47.05;;;42.53;;
60292;SDS011;52402;52.670;6.750;2023-02-15T03:50:54;46.03;;;41.53;;
60292;SDS011;52402;52.670;6.750;2023-02-15T03:53:46;42.85;;;38.83;;
60292;SDS011;52402;52.670;6.750;2023-02-15T03:56:13;45.15;;;40.80;;
60292;SDS011;52402;52.670;6.750;2023-02-15T03:58:39;47.40;;;42.72;;
60292;SDS011;52402;52.670;6.750;2023-02-15T04:01:27;54.08;;;48.35;;
60292;SDS011;52402;52.670;6.750;2023-02-15T04:04:35;50.88;;;45.55;;
60292;SDS011;52402;52.670;6.750;2023-02-15T04:07:04;36.92;;;29.70;;
60292;SDS011;52402;52.670;6.750;2023-02-15T04:09:31;52.20;;;46.88;;
60292;SDS011;52402;52.670;6.750;2023-02-15T04:12:16;48.45;;;43.90;;
60292;SDS011;52402;52.670;6.750;2023-02-15T04:14:41;50.25;;;45.28;;
60292;SDS011;52402;52.670;6.750;2023-02-15T04:17:26;48.47;;;43.53;;
60292;SDS011;52402;52.670;6.750;2023-02-15T04:19:51;58.22;;;52.17;;
60292;SDS011;52402;52.670;6.750;2023-02-15T04:22:35;50.33;;;45.25;;
60292;SDS011;52402;52.670;6.750;2023-02-15T04:25:20;52.10;;;46.92;;
60292;SDS011;52402;52.670;6.750;2023-02-15T04:27:47;38.97;;;35.03;;
60292;SDS011;52402;52.670;6.750;2023-02-15T04:30:15;52.15;;;47.00;;
60292;SDS011;52402;52.670;6.750;2023-02-15T04:32:43;31.33;;;25.30;;
60292;SDS011;52402;52.670;6.750;2023-02-15T04:35:09;51.65;;;46.60;;
60292;SDS011;52402;52.670;6.750;2023-02-15T04:37:35;26.20;;;22.98;;
60292;SDS011;52402;52.670;6.750;2023-02-15T04:40:01;47.65;;;43.25;;
60292;SDS011;52402;52.670;6.750;2023-02-15T04:42:27;54.47;;;49.28;;
60292;SDS011;52402;52.670;6.750;2023-02-15T04:44:53;44.90;;;40.78;;
60292;SDS011;52402;52.670;6.750;2023-02-15T04:47:19;41.22;;;33.70;;
60292;SDS011;52402;52.670;6.750;2023-02-15T04:49:45;57.88;;;52.10;;
60292;SDS011;52402;52.670;6.750;2023-02-15T04:52:11;57.17;;;51.53;;
60292;SDS011;52402;52.670;6.750;2023-02-15T04:54:37;51.72;;;46.63;;
60292;SDS011;52402;52.670;6.750;2023-02-15T04:57:03;60.35;;;54.13;;
60292;SDS011;52402;52.670;6.750;2023-02-15T04:59:29;37.40;;;27.33;;
60292;SDS011;52402;52.670;6.750;2023-02-15T05:01:54;56.45;;;50.67;;
60292;SDS011;52402;52.670;6.750;2023-02-15T05:04:20;46.35;;;41.92;;
60292;SDS011;52402;52.670;6.750;2023-02-15T05:06:45;46.60;;;41.85;;
60292;SDS011;52402;52.670;6.750;2023-02-15T05:09:11;29.20;;;17.52;;
60292;SDS011;52402;52.670;6.750;2023-02-15T05:11:37;48.50;;;44.00;;
60292;SDS011;52402;52.670;6.750;2023-02-15T05:14:03;45.55;;;40.90;;
60292;SDS011;52402;52.670;6.750;2023-02-15T05:16:29;39.67;;;35.45;;
60292;SDS011;52402;52.670;6.750;2023-02-15T05:18:55;47.05;;;42.60;;
60292;SDS011;52402;52.670;6.750;2023-02-15T05:21:20;28.15;;;17.45;;
60292;SDS011;52402;52.670;6.750;2023-02-15T05:23:46;55.80;;;50.53;;
60292;SDS011;52402;52.670;6.750;2023-02-15T05:26:12;46.38;;;42.20;;
60292;SDS011;52402;52.670;6.750;2023-02-15T05:29:01;31.05;;;16.58;;
60292;SDS011;52402;52.670;6.750;2023-02-15T05:31:27;49.83;;;45.22;;
60292;SDS011;52402;52.670;6.750;2023-02-15T05:33:53;46.30;;;41.85;;
60292;SDS011;52402;52.670;6.750;2023-02-15T05:36:18;37.83;;;33.88;;
60292;SDS011;52402;52.670;6.750;2023-02-15T05:38:44;61.58;;;55.25;;
60292;SDS011;52402;52.670;6.750;2023-02-15T05:41:10;48.65;;;44.05;;
60292;SDS011;52402;52.670;6.750;2023-02-15T05:43:36;33.03;;;26.48;;
60292;SDS011;52402;52.670;6.750;2023-02-15T05:46:02;50.45;;;45.58;;
60292;SDS011;52402;52.670;6.750;2023-02-15T05:48:29;61.17;;;54.38;;
60292;SDS011;52402;52.670;6.750;2023-02-15T05:50:58;54.55;;;49.33;;
60292;SDS011;52402;52.670;6.750;2023-02-15T05:53:29;54.75;;;49.47;;
60292;SDS011;52402;52.670;6.750;2023-02-15T05:55:56;39.55;;;32.83;;
60292;SDS011;52402;52.670;6.750;2023-02-15T05:58:29;45.05;;;34.53;;
60292;SDS011;52402;52.670;6.750;2023-02-15T06:00:57;57.55;;;51.75;;
60292;SDS011;52402;52.670;6.750;2023-02-15T06:03:23;44.67;;;40.03;;
60292;SDS011;52402;52.670;6.750;2023-02-15T06:05:50;37.72;;;31.65;;
60292;SDS011;52402;52.670;6.750;2023-02-15T06:08:17;51.58;;;46.47;;
60292;SDS011;52402;52.670;6.750;2023-02-15T06:10:45;53.63;;;48.25;;
60292;SDS011;52402;52.670;6.750;2023-02-15T06:13:11;38.60;;;30.85;;
60292;SDS011;52402;52.670;6.750;2023-02-15T06:15:37;32.58;;;17.80;;
60292;SDS011;52402;52.670;6.750;2023-02-15T06:18:03;54.72;;;48.97;;
60292;SDS011;52402;52.670;6.750;2023-02-15T06:20:28;53.58;;;39.83;;
60292;SDS011;52402;52.670;6.750;2023-02-15T06:22:54;86.90;;;72.68;;
60292;SDS011;52402;52.670;6.750;2023-02-15T06:25:19;75.68;;;65.55;;
60292;SDS011;52402;52.670;6.750;2023-02-15T06:27:45;45.80;;;35.20;;
60292;SDS011;52402;52.670;6.750;2023-02-15T06:30:11;55.67;;;49.80;;
60292;SDS011;52402;52.670;6.750;2023-02-15T06:32:37;48.28;;;43.03;;
60292;SDS011;52402;52.670;6.750;2023-02-15T06:35:03;45.45;;;37.88;;
60292;SDS011;52402;52.670;6.750;2023-02-15T06:37:29;57.80;;;51.70;;
60292;SDS011;52402;52.670;6.750;2023-02-15T06:39:54;54.63;;;43.92;;
60292;SDS011;52402;52.670;6.750;2023-02-15T06:42:21;53.35;;;47.83;;
60292;SDS011;52402;52.670;6.750;2023-02-15T06:44:47;50.85;;;41.97;;
60292;SDS011;52402;52.670;6.750;2023-02-15T06:47:12;49.92;;;42.42;;
60292;SDS011;52402;52.670;6.750;2023-02-15T06:49:38;54.72;;;49.03;;
60292;SDS011;52402;52.670;6.750;2023-02-15T06:52:04;41.42;;;31.65;;
60292;SDS011;52402;52.670;6.750;2023-02-15T06:54:30;48.22;;;40.15;;
60292;SDS011;52402;52.670;6.750;2023-02-15T06:56:55;52.30;;;46.58;;
60292;SDS011;52402;52.670;6.750;2023-02-15T06:59:21;57.92;;;42.55;;
60292;SDS011;52402;52.670;6.750;2023-02-15T07:01:47;59.50;;;46.00;;
60292;SDS011;52402;52.670;6.750;2023-02-15T07:04:14;81.15;;;63.85;;
60292;SDS011;52402;52.670;6.750;2023-02-15T07:06:39;72.10;;;59.55;;
60292;SDS011;52402;52.670;6.750;2023-02-15T07:09:05;35.72;;;19.75;;
60292;SDS011;52402;52.670;6.750;2023-02-15T07:11:31;58.15;;;51.35;;
60292;SDS011;52402;52.670;6.750;2023-02-15T07:14:15;46.92;;;30.98;;
60292;SDS011;52402;52.670;6.750;2023-02-15T07:16:40;70.13;;;56.25;;
60292;SDS011;52402;52.670;6.750;2023-02-15T07:19:06;60.13;;;53.03;;
60292;SDS011;52402;52.670;6.750;2023-02-15T07:21:32;49.10;;;34.38;;
60292;SDS011;52402;52.670;6.750;2023-02-15T07:23:58;76.50;;;56.60;;
60292;SDS011;52402;52.670;6.750;2023-02-15T07:26:24;66.43;;;53.70;;
60292;SDS011;52402;52.670;6.750;2023-02-15T07:28:50;85.18;;;67.97;;
60292;SDS011;52402;52.670;6.750;2023-02-15T07:31:16;72.35;;;55.33;;
60292;SDS011;52402;52.670;6.750;2023-02-15T07:33:42;72.28;;;59.67;;
60292;SDS011;52402;52.670;6.750;2023-02-15T07:36:08;61.92;;;54.03;;
60292;SDS011;52402;52.670;6.750;2023-02-15T07:38:37;53.70;;;39.65;;
60292;SDS011;52402;52.670;6.750;2023-02-15T07:41:05;54.97;;;38.70;;
60292;SDS011;52402;52.670;6.750;2023-02-15T07:43:33;67.18;;;56.53;;
60292;SDS011;52402;52.670;6.750;2023-02-15T07:46:00;63.58;;;54.20;;
60292;SDS011;52402;52.670;6.750;2023-02-15T07:48:27;63.50;;;42.42;;
60292;SDS011;52402;52.670;6.750;2023-02-15T07:50:53;91.10;;;69.82;;
60292;SDS011;52402;52.670;6.750;2023-02-15T07:53:18;92.10;;;69.57;;
60292;SDS011;52402;52.670;6.750;2023-02-15T07:55:44;65.90;;;43.28;;
60292;SDS011;52402;52.670;6.750;2023-02-15T07:58:09;98.28;;;71.05;;
60292;SDS011;52402;52.670;6.750;2023-02-15T08:00:35;86.72;;;55.38;;
60292;SDS011;52402;52.670;6.750;2023-02-15T08:03:19;109.07;;;79.88;;
60292;SDS011;52402;52.670;6.750;2023-02-15T08:05:47;106.10;;;67.55;;
60292;SDS011;52402;52.670;6.750;2023-02-15T08:08:12;108.97;;;78.60;;
60292;SDS011;52402;52.670;6.750;2023-02-15T08:11:04;121.10;;;83.05;;
60292;SDS011;52402;52.670;6.750;2023-02-15T08:13:59;118.00;;;83.10;;
60292;SDS011;52402;52.670;6.750;2023-02-15T08:19:02;115.25;;;83.38;;
60292;SDS011;52402;52.670;6.750;2023-02-15T08:21:30;124.72;;;86.85;;
60292;SDS011;52402;52.670;6.750;2023-02-15T08:23:57;118.70;;;83.65;;
60292;SDS011;52402;52.670;6.750;2023-02-15T08:26:23;122.18;;;87.95;;
60292;SDS011;52402;52.670;6.750;2023-02-15T08:28:50;118.25;;;77.90;;
60292;SDS011;52402;52.670;6.750;2023-02-15T08:31:17;122.57;;;88.15;;
60292;SDS011;52402;52.670;6.750;2023-02-15T08:33:43;126.95;;;90.95;;
60292;SDS011;52402;52.670;6.750;2023-02-15T08:36:11;125.95;;;89.32;;
60292;SDS011;52402;52.670;6.750;2023-02-15T08:38:38;118.18;;;87.63;;
60292;SDS011;52402;52.670;6.750;2023-02-15T08:41:08;117.30;;;85.35;;
60292;SDS011;52402;52.670;6.750;2023-02-15T08:43:41;119.97;;;86.80;;
60292;SDS011;52402;52.670;6.750;2023-02-15T08:46:08;112.45;;;84.38;;
60292;SDS011;52402;52.670;6.750;2023-02-15T08:48:34;116.57;;;84.60;;
60292;SDS011;52402;52.670;6.750;2023-02-15T08:51:11;114.55;;;84.75;;
60292;SDS011;52402;52.670;6.750;2023-02-15T08:53:43;108.95;;;81.20;;
60292;SDS011;52402;52.670;6.750;2023-02-15T08:56:11;100.25;;;80.07;;
60292;SDS011;52402;52.670;6.750;2023-02-15T08:58:37;102.05;;;80.15;;
60292;SDS011;52402;52.670;6.750;2023-02-15T09:01:13;103.25;;;80.35;;
60292;SDS011;52402;52.670;6.750;2023-02-15T09:03:43;95.22;;;74.35;;
60292;SDS011;52402;52.670;6.750;2023-02-15T09:06:09;100.22;;;80.10;;
60292;SDS011;52402;52.670;6.750;2023-02-15T09:08:36;92.53;;;74.72;;
60292;SDS011;52402;52.670;6.750;2023-02-15T09:11:06;96.18;;;77.00;;
60292;SDS011;52402;52.670;6.750;2023-02-15T09:13:33;86.95;;;71.15;;
60292;SDS011;52402;52.670;6.750;2023-02-15T09:16:02;89.43;;;73.43;;
60292;SDS011;52402;52.670;6.750;2023-02-15T09:18:30;90.65;;;73.40;;
60292;SDS011;52402;52.670;6.750;2023-02-15T09:21:03;90.43;;;70.38;;
60292;SDS011;52402;52.670;6.750;2023-02-15T09:23:29;89.25;;;70.80;;
60292;SDS011;52402;52.670;6.750;2023-02-15T09:25:55;75.88;;;65.15;;
60292;SDS011;52402;52.670;6.750;2023-02-15T09:28:20;82.28;;;65.00;;
60292;SDS011;52402;52.670;6.750;2023-02-15T09:30:46;101.80;;;80.38;;
60292;SDS011;52402;52.670;6.750;2023-02-15T09:33:11;82.40;;;67.05;;
60292;SDS011;52402;52.670;6.750;2023-02-15T09:35:37;81.68;;;67.75;;
60292;SDS011;52402;52.670;6.750;2023-02-15T09:38:03;82.40;;;68.20;;
60292;SDS011;52402;52.670;6.750;2023-02-15T09:40:29;79.85;;;68.85;;
60292;SDS011;52402;52.670;6.750;2023-02-15T09:43:09;76.50;;;65.38;;
60292;SDS011;52402;52.670;6.750;2023-02-15T09:45:54;74.20;;;63.35;;
60292;SDS011;52402;52.670;6.750;2023-02-15T09:48:38;69.15;;;60.35;;
60292;SDS011;52402;52.670;6.750;2023-02-15T09:59:04;73.57;;;60.72;;
60292;SDS011;52402;52.670;6.750;2023-02-15T10:04:34;68.18;;;58.55;;
60292;SDS011;52402;52.670;6.750;2023-02-15T10:07:18;66.70;;;56.45;;
60292;SDS011;52402;52.670;6.750;2023-02-15T10:10:02;69.95;;;58.83;;
60292;SDS011;52402;52.670;6.750;2023-02-15T10:18:16;66.43;;;56.50;;
60292;SDS011;52402;52.670;6.750;2023-02-15T10:26:49;63.28;;;55.17;;
60292;SDS011;52402;52.670;6.750;2023-02-15T10:31:58;62.72;;;54.30;;
60292;SDS011;52402;52.670;6.750;2023-02-15T10:35:01;64.80;;;55.65;;
60292;SDS011;52402;52.670;6.750;2023-02-15T10:40:18;60.97;;;54.38;;
60292;SDS011;52402;52.670;6.750;2023-02-15T10:43:06;60.42;;;53.88;;
60292;SDS011;52402;52.670;6.750;2023-02-15T10:51:05;60.85;;;52.80;;
60292;SDS011;52402;52.670;6.750;2023-02-15T10:59:37;59.13;;;52.58;;
60292;SDS011;52402;52.670;6.750;2023-02-15T11:05:26;60.22;;;52.05;;
60292;SDS011;52402;52.670;6.750;2023-02-15T11:08:15;60.60;;;51.17;;
60292;SDS011;52402;52.670;6.750;2023-02-15T11:13:11;60.22;;;53.10;;
60292;SDS011;52402;52.670;6.750;2023-02-15T11:15:43;58.05;;;49.65;;
60292;SDS011;52402;52.670;6.750;2023-02-15T11:18:25;56.10;;;49.88;;
60292;SDS011;52402;52.670;6.750;2023-02-15T11:23:49;55.00;;;49.13;;
60292;SDS011;52402;52.670;6.750;2023-02-15T11:26:19;53.15;;;47.22;;
60292;SDS011;52402;52.670;6.750;2023-02-15T11:29:10;56.53;;;46.78;;
60292;SDS011;52402;52.670;6.750;2023-02-15T11:31:41;54.15;;;46.80;;
60292;SDS011;52402;52.670;6.750;2023-02-15T11:34:20;51.33;;;45.72;;
60292;SDS011;52402;52.670;6.750;2023-02-15T11:36:47;54.03;;;46.95;;
60292;SDS011;52402;52.670;6.750;2023-02-15T11:39:16;51.90;;;46.20;;
60292;SDS011;52402;52.670;6.750;2023-02-15T11:41:50;52.53;;;45.65;;
60292;SDS011;52402;52.670;6.750;2023-02-15T11:44:24;53.60;;;46.30;;
60292;SDS011;52402;52.670;6.750;2023-02-15T11:47:10;53.03;;;45.90;;
60292;SDS011;52402;52.670;6.750;2023-02-15T11:49:37;49.85;;;44.45;;
60292;SDS011;52402;52.670;6.750;2023-02-15T11:52:07;57.50;;;47.75;;
60292;SDS011;52402;52.670;6.750;2023-02-15T11:54:39;57.30;;;46.90;;
60292;SDS011;52402;52.670;6.750;2023-02-15T11:57:15;50.95;;;44.95;;
60292;SDS011;52402;52.670;6.750;2023-02-15T12:03:02;51.15;;;43.58;;
60292;SDS011;52402;52.670;6.750;2023-02-15T12:05:49;50.67;;;42.92;;
60292;SDS011;52402;52.670;6.750;2023-02-15T12:08:21;49.38;;;42.35;;
60292;SDS011;52402;52.670;6.750;2023-02-15T12:10:57;50.53;;;42.50;;
60292;SDS011;52402;52.670;6.750;2023-02-15T12:13:29;49.88;;;42.40;;
60292;SDS011;52402;52.670;6.750;2023-02-15T12:15:55;50.83;;;41.55;;
60292;SDS011;52402;52.670;6.750;2023-02-15T12:20:59;46.38;;;40.17;;
60292;SDS011;52402;52.670;6.750;2023-02-15T12:23:30;48.90;;;39.20;;
60292;SDS011;52402;52.670;6.750;2023-02-15T12:25:57;48.33;;;38.40;;
60292;SDS011;52402;52.670;6.750;2023-02-15T12:28:25;44.95;;;38.53;;
60292;SDS011;52402;52.670;6.750;2023-02-15T12:30:57;45.20;;;37.47;;
60292;SDS011;52402;52.670;6.750;2023-02-15T12:35:56;45.15;;;38.13;;
60292;SDS011;52402;52.670;6.750;2023-02-15T12:38:26;43.85;;;37.80;;
60292;SDS011;52402;52.670;6.750;2023-02-15T12:41:04;45.67;;;39.38;;
60292;SDS011;52402;52.670;6.750;2023-02-15T12:43:46;47.47;;;38.72;;
60292;SDS011;52402;52.670;6.750;2023-02-15T12:51:52;44.20;;;38.08;;
60292;SDS011;52402;52.670;6.750;2023-02-15T12:57:46;44.15;;;38.83;;
60292;SDS011;52402;52.670;6.750;2023-02-15T12:59:58;46.63;;;39.45;;
60292;SDS011;52402;52.670;6.750;2023-02-15T13:02:27;46.88;;;38.22;;
60292;SDS011;52402;52.670;6.750;2023-02-15T13:04:56;46.28;;;37.92;;
60292;SDS011;52402;52.670;6.750;2023-02-15T13:07:30;45.25;;;38.13;;
60292;SDS011;52402;52.670;6.750;2023-02-15T13:09:57;44.47;;;37.08;;
60292;SDS011;52402;52.670;6.750;2023-02-15T13:12:24;46.58;;;37.60;;
60292;SDS011;52402;52.670;6.750;2023-02-15T13:14:52;43.42;;;37.30;;
60292;SDS011;52402;52.670;6.750;2023-02-15T13:17:27;40.80;;;36.00;;
60292;SDS011;52402;52.670;6.750;2023-02-15T13:20:05;41.45;;;35.75;;
60292;SDS011;52402;52.670;6.750;2023-02-15T13:22:43;45.35;;;36.95;;
60292;SDS011;52402;52.670;6.750;2023-02-15T13:27:38;44.53;;;36.50;;
60292;SDS011;52402;52.670;6.750;2023-02-15T13:30:25;42.83;;;36.75;;
60292;SDS011;52402;52.670;6.750;2023-02-15T13:33:08;43.90;;;37.53;;
60292;SDS011;52402;52.670;6.750;2023-02-15T13:41:09;43.10;;;37.13;;
60292;SDS011;52402;52.670;6.750;2023-02-15T13:44:10;43.55;;;36.60;;
60292;SDS011;52402;52.670;6.750;2023-02-15T13:47:01;43.90;;;36.55;;
60292;SDS011;52402;52.670;6.750;2023-02-15T13:49:39;42.92;;;34.15;;
60292;SDS011;52402;52.670;6.750;2023-02-15T13:52:25;41.88;;;33.67;;
60292;SDS011;52402;52.670;6.750;2023-02-15T13:57:48;41.40;;;34.53;;
60292;SDS011;52402;52.670;6.750;2023-02-15T14:00:43;38.55;;;33.25;;
60292;SDS011;52402;52.670;6.750;2023-02-15T14:11:44;41.30;;;33.72;;
60292;SDS011;52402;52.670;6.750;2023-02-15T14:14:35;38.67;;;33.30;;
60292;SDS011;52402;52.670;6.750;2023-02-15T14:17:21;39.80;;;33.35;;
60292;SDS011;52402;52.670;6.750;2023-02-15T14:22:59;40.08;;;33.30;;
60292;SDS011;52402;52.670;6.750;2023-02-15T14:25:52;40.63;;;33.85;;
60292;SDS011;52402;52.670;6.750;2023-02-15T14:28:33;40.20;;;33.65;;
60292;SDS011;52402;52.670;6.750;2023-02-15T14:31:07;40.20;;;34.28;;
60292;SDS011;52402;52.670;6.750;2023-02-15T14:33:39;40.78;;;34.42;;
60292;SDS011;52402;52.670;6.750;2023-02-15T14:36:09;39.63;;;33.15;;
60292;SDS011;52402;52.670;6.750;2023-02-15T14:42:21;38.15;;;31.88;;
60292;SDS011;52402;52.670;6.750;2023-02-15T14:45:00;39.28;;;31.58;;
60292;SDS011;52402;52.670;6.750;2023-02-15T14:50:23;42.10;;;34.28;;
60292;SDS011;52402;52.670;6.750;2023-02-15T14:55:40;40.30;;;33.25;;
60292;SDS011;52402;52.670;6.750;2023-02-15T14:58:10;40.20;;;31.98;;
60292;SDS011;52402;52.670;6.750;2023-02-15T15:00:37;38.83;;;32.25;;
60292;SDS011;52402;52.670;6.750;2023-02-15T15:03:11;41.45;;;32.10;;
60292;SDS011;52402;52.670;6.750;2023-02-15T15:05:49;39.92;;;32.03;;
60292;SDS011;52402;52.670;6.750;2023-02-15T15:08:28;43.95;;;32.67;;
60292;SDS011;52402;52.670;6.750;2023-02-15T15:10:57;37.88;;;29.58;;
60292;SDS011;52402;52.670;6.750;2023-02-15T15:13:58;39.15;;;31.73;;
60292;SDS011;52402;52.670;6.750;2023-02-15T15:16:28;43.58;;;32.95;;
60292;SDS011;52402;52.670;6.750;2023-02-15T15:18:54;40.10;;;31.92;;
60292;SDS011;52402;52.670;6.750;2023-02-15T15:49:31;38.40;;;32.83;;
60292;SDS011;52402;52.670;6.750;2023-02-15T15:52:03;40.10;;;33.67;;
60292;SDS011;52402;52.670;6.750;2023-02-15T15:54:38;42.35;;;32.97;;
60292;SDS011;52402;52.670;6.750;2023-02-15T15:57:06;44.25;;;34.65;;
60292;SDS011;52402;52.670;6.750;2023-02-15T15:59:44;40.97;;;33.85;;
60292;SDS011;52402;52.670;6.750;2023-02-15T16:02:12;41.85;;;33.97;;
60292;SDS011;52402;52.670;6.750;2023-02-15T16:04:41;40.97;;;35.08;;
60292;SDS011;52402;52.670;6.750;2023-02-15T16:07:14;43.90;;;34.55;;
60292;SDS011;52402;52.670;6.750;2023-02-15T16:12:27;43.75;;;34.67;;
60292;SDS011;52402;52.670;6.750;2023-02-15T16:14:55;43.65;;;35.17;;
60292;SDS011;52402;52.670;6.750;2023-02-15T16:17:25;44.53;;;36.53;;
60292;SDS011;52402;52.670;6.750;2023-02-15T16:19:54;47.80;;;38.05;;
60292;SDS011;52402;52.670;6.750;2023-02-15T16:22:30;44.42;;;37.03;;
60292;SDS011;52402;52.670;6.750;2023-02-15T16:27:50;44.60;;;36.03;;
60292;SDS011;52402;52.670;6.750;2023-02-15T16:32:46;44.35;;;35.80;;
60292;SDS011;52402;52.670;6.750;2023-02-15T16:35:14;43.17;;;35.95;;
60292;SDS011;52402;52.670;6.750;2023-02-15T16:37:42;42.70;;;35.28;;
60292;SDS011;52402;52.670;6.750;2023-02-15T16:42:49;44.53;;;35.95;;
60292;SDS011;52402;52.670;6.750;2023-02-15T16:45:35;43.17;;;34.53;;
60292;SDS011;52402;52.670;6.750;2023-02-15T16:48:05;43.50;;;36.28;;
60292;SDS011;52402;52.670;6.750;2023-02-15T16:50:34;45.63;;;37.03;;
60292;SDS011;52402;52.670;6.750;2023-02-15T16:53:02;41.20;;;36.35;;
60292;SDS011;52402;52.670;6.750;2023-02-15T16:55:33;43.80;;;36.40;;
60292;SDS011;52402;52.670;6.750;2023-02-15T16:58:04;43.33;;;36.53;;
60292;SDS011;52402;52.670;6.750;2023-02-15T17:00:33;44.70;;;36.83;;
60292;SDS011;52402;52.670;6.750;2023-02-15T17:03:05;43.97;;;36.85;;
60292;SDS011;52402;52.670;6.750;2023-02-15T17:08:15;43.65;;;37.55;;
60292;SDS011;52402;52.670;6.750;2023-02-15T17:10:41;45.25;;;36.47;;
60292;SDS011;52402;52.670;6.750;2023-02-15T17:13:11;47.50;;;37.17;;
60292;SDS011;52402;52.670;6.750;2023-02-15T17:15:40;45.90;;;37.90;;
60292;SDS011;52402;52.670;6.750;2023-02-15T17:21:13;44.28;;;38.60;;
60292;SDS011;52402;52.670;6.750;2023-02-15T17:23:44;42.78;;;36.55;;
60292;SDS011;52402;52.670;6.750;2023-02-15T17:28:54;44.08;;;37.58;;
60292;SDS011;52402;52.670;6.750;2023-02-15T17:31:36;42.85;;;37.47;;
60292;SDS011;52402;52.670;6.750;2023-02-15T17:34:02;43.80;;;38.17;;
60292;SDS011;52402;52.670;6.750;2023-02-15T17:36:29;47.78;;;39.28;;